Sointula, Canada
Current Conditions -  °F | °C
As of 8:00 AM on Saturday 22 Nov 2014 (Local Time) from CYZT Reporting Station
Scattered Clouds Scattered Clouds  
Wind Chill: 37°   Ceiling: Unl
Heat Index: 37°   Visibility: 15mi
Dew Point: 37°   Wind: 3mph
Humidity: 100%   Direction: 230°SW
Pressure: 29.66"   Gusts: NA
Location:  50.63°N, 127.02°W
Report Text: CYZT 221600Z 23003KT 200V310 15SM FEW025 SCT036 03/03 A2966 RMK SC2SC2 CB TOP DIST W SLP046
Loading
Personal Weather Stations






























Interactive Weather Map New forecast layout! Learn more

10-Day Weather Forecast

Advertisements
Track Severe Weather on mobile